Time;durP1;ratioP1;P1;durP2;ratioP2;P2;SDS_P1;SDS_P2;PMS_P1;PMS_P2;Temp;Humidity;BMP_temperature;BMP_pressure;BME280_temperature;BME280_humidity;BME280_pressure;Samples;Min_cycle;Max_cycle;Signal;HPM_P1;HPM_P2
2021/11/03 00:02:05;;;;;;;0.50;0.50;;;24.00;38.20;;;;;;1787662;80;21601;-11
2021/11/03 00:04:32;;;;;;;1.35;0.68;;;23.90;38.30;;;;;;1787523;80;21532;-11
2021/11/03 00:07:00;;;;;;;0.93;0.75;;;23.90;38.80;;;;;;1787660;80;21075;-11
2021/11/03 00:09:28;;;;;;;0.68;0.68;;;23.90;38.90;;;;;;1787690;80;21540;-11
2021/11/03 00:11:55;;;;;;;0.80;0.60;;;23.90;38.70;;;;;;1787625;80;21698;-11
2021/11/03 00:14:23;;;;;;;0.82;0.80;;;23.90;38.50;;;;;;1787735;79;21603;-11
2021/11/03 00:16:50;;;;;;;0.80;0.80;;;23.90;38.60;;;;;;1787650;80;21051;-11
2021/11/03 00:19:18;;;;;;;1.87;0.82;;;23.90;38.70;;;;;;1787715;80;21087;-11
2021/11/03 00:21:45;;;;;;;1.62;1.22;;;23.90;39.00;;;;;;1787627;79;21115;-11
2021/11/03 00:24:12;;;;;;;1.15;1.00;;;23.90;38.80;;;;;;1787635;79;21115;-11
2021/11/03 00:26:40;;;;;;;0.82;0.82;;;24.00;38.70;;;;;;1787615;80;21075;-11
2021/11/03 00:29:08;;;;;;;1.37;0.90;;;23.90;39.10;;;;;;1787659;80;21547;-11
2021/11/03 00:31:35;;;;;;;0.90;0.90;;;23.90;38.60;;;;;;1787717;80;21591;-11
2021/11/03 00:34:03;;;;;;;1.37;1.22;;;23.90;38.70;;;;;;1787665;80;21011;-11
2021/11/03 00:36:30;;;;;;;1.20;1.10;;;23.90;38.70;;;;;;1787635;80;21051;-11
2021/11/03 00:38:57;;;;;;;1.02;0.80;;;23.80;38.60;;;;;;1787587;80;21551;-11
2021/11/03 00:41:25;;;;;;;1.12;1.02;;;23.80;39.00;;;;;;1787643;80;21091;-11
2021/11/03 00:43:53;;;;;;;0.93;0.82;;;23.80;38.70;;;;;;1787685;80;21552;-11
2021/11/03 00:46:22;;;;;;;1.00;0.90;;;23.90;38.60;;;;;;1787641;80;21091;-11
2021/11/03 00:48:50;;;;;;;1.00;1.00;;;23.90;38.60;;;;;;1787805;80;21579;-11
2021/11/03 00:51:18;;;;;;;1.27;1.17;;;23.80;38.60;;;;;;1787641;80;21512;-11
2021/11/03 00:53:46;;;;;;;1.10;1.00;;;23.80;38.60;;;;;;1787642;80;21591;-11
2021/11/03 00:56:13;;;;;;;1.10;1.00;;;23.80;38.70;;;;;;1787749;80;21540;-11
2021/11/03 00:58:41;;;;;;;1.30;1.00;;;23.80;39.00;;;;;;1787624;80;21063;-11
2021/11/03 01:01:08;;;;;;;1.27;1.17;;;23.80;39.10;;;;;;1787645;80;21145;-11
2021/11/03 01:03:36;;;;;;;1.55;1.20;;;23.80;38.70;;;;;;1787650;80;21164;-11
2021/11/03 01:06:04;;;;;;;1.20;1.10;;;23.80;38.60;;;;;;1787650;80;21067;-10
2021/11/03 01:08:32;;;;;;;1.30;1.20;;;23.80;38.60;;;;;;1787607;80;21059;-11
2021/11/03 01:10:59;;;;;;;1.40;1.20;;;23.80;38.60;;;;;;1787684;80;21094;-11
2021/11/03 01:13:27;;;;;;;1.35;1.10;;;23.80;38.90;;;;;;1787741;80;21559;-11
2021/11/03 01:16:00;;;;;;;1.50;1.40;;;23.80;38.90;;;;;;1787628;80;21059;-11
2021/11/03 01:18:25;;;;;;;1.50;1.30;;;23.80;38.60;;;;;;1786285;80;21095;-11
2021/11/03 01:20:53;;;;;;;1.60;1.30;;;23.80;38.50;;;;;;1787626;80;21504;-11
2021/11/03 01:23:21;;;;;;;1.40;1.25;;;23.80;38.50;;;;;;1786291;79;21540;-11
2021/11/03 01:25:48;;;;;;;1.25;1.12;;;23.80;39.00;;;;;;1785451;80;21523;-11
2021/11/03 01:28:16;;;;;;;1.27;1.17;;;23.80;38.90;;;;;;1785432;80;21205;-11
2021/11/03 01:30:45;;;;;;;1.52;1.32;;;23.80;38.50;;;;;;1785454;80;21075;-11
2021/11/03 01:33:15;;;;;;;1.60;1.50;;;23.80;38.50;;;;;;1785423;80;21607;-10
2021/11/03 01:35:42;;;;;;;1.82;1.20;;;23.80;38.50;;;;;;1784871;79;21032;-10
2021/11/03 01:38:10;;;;;;;1.47;1.22;;;23.80;38.90;;;;;;1785357;80;21603;-10
2021/11/03 01:40:39;;;;;;;1.50;1.40;;;23.80;38.70;;;;;;1785375;80;21103;-10
2021/11/03 01:43:07;;;;;;;1.32;1.20;;;23.80;38.60;;;;;;1785391;80;21123;-10
2021/11/03 01:45:34;;;;;;;1.30;1.20;;;23.80;38.60;;;;;;1785423;80;21075;-10
2021/11/03 01:48:05;;;;;;;1.47;1.10;;;23.80;38.50;;;;;;1785395;80;21556;-11
2021/11/03 01:50:51;;;;;;;1.40;1.30;;;23.80;38.90;;;;;;1784770;80;21087;-11
2021/11/03 01:53:24;;;;;;;2.25;1.70;;;23.70;38.80;;;;;;1785125;80;21063;-11
2021/11/03 01:56:00;;;;;;;2.42;1.80;;;23.80;38.60;;;;;;1785364;80;21131;-11
2021/11/03 01:58:43;;;;;;;1.50;1.40;;;23.80;38.60;;;;;;1785453;79;21020;-11
2021/11/03 02:01:10;;;;;;;1.82;1.62;;;23.80;38.70;;;;;;1791896;80;21465;-10
2021/11/03 02:03:38;;;;;;;2.20;1.60;;;23.70;38.70;;;;;;1785342;80;21592;-10
2021/11/03 02:06:10;;;;;;;1.55;1.45;;;23.70;38.70;;;;;;1785451;80;21925;-10
2021/11/03 02:08:39;;;;;;;2.42;1.80;;;23.70;38.50;;;;;;1785357;80;21067;-10
2021/11/03 02:11:07;;;;;;;1.85;1.72;;;23.80;38.50;;;;;;1785326;79;21626;-10
2021/11/03 02:13:36;;;;;;;1.92;1.50;;;23.80;38.60;;;;;;1785408;80;21143;-10
2021/11/03 02:16:04;;;;;;;1.75;1.60;;;23.80;39.10;;;;;;1785398;80;21643;-10
2021/11/03 02:18:32;;;;;;;1.60;1.50;;;23.70;38.80;;;;;;1785339;80;21079;-10
2021/11/03 02:20:59;;;;;;;1.80;1.70;;;23.80;38.60;;;;;;1785423;80;21115;-10
2021/11/03 02:23:39;;;;;;;2.20;2.00;;;23.80;38.50;;;;;;1785250;79;21115;-10
2021/11/03 02:26:09;;;;;;;2.22;1.40;;;23.80;38.60;;;;;;1785496;80;21115;-11
2021/11/03 02:28:38;;;;;;;1.52;1.40;;;23.80;39.00;;;;;;1785163;80;21058;-11
2021/11/03 02:31:05;;;;;;;2.22;2.02;;;23.70;38.60;;;;;;1785325;80;21184;-11
2021/11/03 02:33:34;;;;;;;1.80;1.50;;;23.70;38.60;;;;;;1785428;79;21072;-11
2021/11/03 02:36:06;;;;;;;1.50;1.40;;;23.80;38.50;;;;;;1785347;80;21111;-11
2021/11/03 02:38:39;;;;;;;2.02;1.55;;;23.70;39.10;;;;;;1785576;79;21016;-11
2021/11/03 02:41:21;;;;;;;2.22;1.72;;;23.70;39.10;;;;;;1785355;80;21099;-11
2021/11/03 02:43:54;;;;;;;2.15;1.95;;;23.70;39.00;;;;;;1785487;80;21527;-11
2021/11/03 02:46:22;;;;;;;1.80;1.70;;;23.70;38.80;;;;;;1785344;80;21091;-11
2021/11/03 02:48:49;;;;;;;1.60;1.50;;;23.70;39.00;;;;;;1785304;79;21500;-11
2021/11/03 02:51:32;;;;;;;1.42;1.32;;;23.80;39.30;;;;;;1785375;80;21086;-11
2021/11/03 02:54:03;;;;;;;1.40;1.30;;;23.80;39.20;;;;;;1785328;80;21063;-11
2021/11/03 02:56:33;;;;;;;2.02;1.82;;;23.70;38.90;;;;;;1785420;80;21707;-11
2021/11/03 02:59:00;;;;;;;1.80;1.70;;;23.80;38.50;;;;;;1785321;80;21116;-11
2021/11/03 03:01:46;;;;;;;1.42;1.32;;;23.80;38.70;;;;;;1785315;80;21610;-11
2021/11/03 03:04:16;;;;;;;1.42;1.30;;;23.80;38.90;;;;;;1785508;79;21524;-11
2021/11/03 03:06:44;;;;;;;1.60;1.50;;;23.80;39.10;;;;;;1785345;80;21516;-11
2021/11/03 03:09:12;;;;;;;1.72;1.62;;;23.80;38.60;;;;;;1785456;80;21548;-11
2021/11/03 03:11:42;;;;;;;1.52;1.42;;;23.80;38.40;;;;;;1785419;80;21544;-11
2021/11/03 03:14:10;;;;;;;1.82;1.50;;;23.80;38.40;;;;;;1785508;80;21149;-11
2021/11/03 03:16:37;;;;;;;1.60;1.27;;;23.80;38.70;;;;;;1785447;79;21123;-11
2021/11/03 03:19:04;;;;;;;1.50;1.35;;;23.80;38.80;;;;;;1785512;79;21087;-11
2021/11/03 03:21:32;;;;;;;1.90;1.70;;;23.80;38.30;;;;;;1785536;79;21083;-11
2021/11/03 03:24:02;;;;;;;1.62;1.52;;;23.80;38.10;;;;;;1786516;79;21511;-11
2021/11/03 03:26:29;;;;;;;1.40;1.30;;;23.80;38.00;;;;;;1787658;80;21059;-11
2021/11/03 03:28:57;;;;;;;1.50;1.40;;;23.80;38.50;;;;;;1787756;80;21612;-11
2021/11/03 03:31:25;;;;;;;1.70;1.60;;;23.80;38.50;;;;;;1787664;80;21052;-11
2021/11/03 03:33:54;;;;;;;1.80;1.70;;;23.80;38.10;;;;;;1787700;80;21027;-9
2021/11/03 03:36:23;;;;;;;1.60;1.50;;;23.80;38.00;;;;;;1787690;80;21568;-11
2021/11/03 03:38:51;;;;;;;1.62;1.40;;;23.80;37.90;;;;;;1787629;80;21082;-9
2021/11/03 03:41:19;;;;;;;1.37;1.27;;;23.80;38.40;;;;;;1787667;80;21055;-11
2021/11/03 03:43:47;;;;;;;2.12;1.80;;;23.80;38.30;;;;;;1787655;80;21134;-9
2021/11/03 03:46:15;;;;;;;1.77;1.50;;;23.80;37.90;;;;;;1787663;80;21083;-9
2021/11/03 03:48:43;;;;;;;2.35;1.40;;;23.80;37.70;;;;;;1787695;80;21145;-9
2021/11/03 03:51:11;;;;;;;1.20;1.10;;;23.80;37.70;;;;;;1787647;80;21027;-10
2021/11/03 03:53:39;;;;;;;1.40;1.30;;;23.80;38.10;;;;;;1787621;80;21654;-10
2021/11/03 03:56:07;;;;;;;2.08;1.90;;;23.80;37.90;;;;;;1787727;80;21610;-10
2021/11/03 03:58:36;;;;;;;1.67;1.57;;;23.80;37.60;;;;;;1787657;80;21059;-10
2021/11/03 04:01:03;;;;;;;2.83;2.15;;;23.80;37.80;;;;;;1787677;80;21145;-10
2021/11/03 04:03:31;;;;;;;2.10;1.52;;;23.80;37.60;;;;;;1787707;80;21585;-10
2021/11/03 04:05:59;;;;;;;1.10;1.10;;;23.80;38.00;;;;;;1787633;80;21508;-10
2021/11/03 04:08:27;;;;;;;1.92;1.75;;;23.70;38.10;;;;;;1787669;80;21079;-10
2021/11/03 04:10:54;;;;;;;1.42;1.32;;;23.70;37.70;;;;;;1787740;80;21141;-10
2021/11/03 04:13:22;;;;;;;1.10;1.10;;;23.70;37.70;;;;;;1787644;80;21075;-10
2021/11/03 04:15:50;;;;;;;1.07;1.05;;;23.70;37.80;;;;;;1787657;80;21087;-10
2021/11/03 04:18:17;;;;;;;1.00;0.70;;;23.70;38.10;;;;;;1787724;80;21643;-10
2021/11/03 04:20:44;;;;;;;1.10;1.00;;;23.70;37.90;;;;;;1787609;80;21071;-10
2021/11/03 04:23:12;;;;;;;1.15;1.00;;;23.70;37.50;;;;;;1787611;79;21412;-10
2021/11/03 04:25:40;;;;;;;0.90;0.90;;;23.70;37.70;;;;;;1785709;79;21130;-10
2021/11/03 04:28:07;;;;;;;0.80;0.80;;;23.70;37.80;;;;;;1785439;80;21094;-10
2021/11/03 04:30:35;;;;;;;1.07;0.98;;;23.70;38.20;;;;;;1785486;79;22322;-10
2021/11/03 04:33:03;;;;;;;1.98;1.27;;;23.70;38.00;;;;;;1785426;80;21146;-11
2021/11/03 04:35:30;;;;;;;0.98;0.98;;;23.70;37.80;;;;;;1785375;80;21643;-11
2021/11/03 04:37:58;;;;;;;1.30;1.20;;;23.70;37.70;;;;;;1785488;80;21568;-11
2021/11/03 04:40:26;;;;;;;0.82;0.72;;;23.70;37.60;;;;;;1785384;80;21028;-11
2021/11/03 04:42:53;;;;;;;0.88;0.88;;;23.70;38.10;;;;;;1785448;80;21131;-11
2021/11/03 04:45:21;;;;;;;0.90;0.90;;;23.70;37.90;;;;;;1785441;80;21111;-11
2021/11/03 04:47:49;;;;;;;1.00;1.00;;;23.70;37.70;;;;;;1785415;80;21639;-11
2021/11/03 04:50:20;;;;;;;0.90;0.85;;;23.70;37.60;;;;;;1785527;80;21123;-11
2021/11/03 04:52:47;;;;;;;1.00;0.85;;;23.70;37.90;;;;;;1785135;80;21614;-11
2021/11/03 04:55:15;;;;;;;0.80;0.80;;;23.70;38.10;;;;;;1785430;80;21568;-11
2021/11/03 04:57:42;;;;;;;1.50;1.20;;;23.70;37.70;;;;;;1785486;79;21091;-11
2021/11/03 05:00:15;;;;;;;1.17;1.07;;;23.70;37.60;;;;;;1785416;80;21610;-11
2021/11/03 05:02:43;;;;;;;1.00;0.90;;;23.70;37.40;;;;;;1785413;80;21107;-11
2021/11/03 05:05:10;;;;;;;0.80;0.80;;;23.70;38.00;;;;;;1785423;80;21127;-11
2021/11/03 05:07:38;;;;;;;1.10;1.00;;;23.70;38.00;;;;;;1785368;80;21154;-11
2021/11/03 05:10:06;;;;;;;1.07;1.05;;;23.60;37.60;;;;;;1785481;80;21551;-11
2021/11/03 05:12:33;;;;;;;1.17;0.95;;;23.70;37.40;;;;;;1785415;80;21602;-11
2021/11/03 05:15:01;;;;;;;1.00;0.90;;;23.70;37.40;;;;;;1785443;79;21185;-11
2021/11/03 05:17:31;;;;;;;0.75;0.75;;;23.70;37.50;;;;;;1785519;80;21496;-11
2021/11/03 05:19:59;;;;;;;1.00;0.90;;;23.70;37.80;;;;;;1785433;80;21040;-11
2021/11/03 05:22:29;;;;;;;1.40;1.00;;;23.60;37.40;;;;;;1785534;80;21593;-11
2021/11/03 05:24:56;;;;;;;1.10;0.98;;;23.70;37.70;;;;;;1798974;79;21110;-11
2021/11/03 05:27:25;;;;;;;0.60;0.60;;;23.70;37.20;;;;;;1816272;78;21589;-11
2021/11/03 05:29:53;;;;;;;1.55;0.98;;;23.60;37.40;;;;;;1816184;79;21544;-11
2021/11/03 05:32:20;;;;;;;1.32;1.10;;;23.60;37.60;;;;;;1816335;79;21631;-11
2021/11/03 05:34:48;;;;;;;1.00;0.90;;;23.60;37.30;;;;;;1816313;79;21115;-11
2021/11/03 05:37:16;;;;;;;1.05;1.00;;;23.60;37.20;;;;;;1816269;79;21556;-11
2021/11/03 05:39:44;;;;;;;0.88;0.70;;;23.60;37.20;;;;;;1816183;78;21103;-11
2021/11/03 05:42:12;;;;;;;1.00;0.90;;;23.60;37.60;;;;;;1816162;79;21095;-11
2021/11/03 05:44:39;;;;;;;0.90;0.90;;;23.60;37.80;;;;;;1816428;79;21536;-11
2021/11/03 05:47:08;;;;;;;0.65;0.65;;;23.60;37.40;;;;;;1816235;79;21092;-11
2021/11/03 05:49:37;;;;;;;1.05;1.05;;;23.60;37.20;;;;;;1816208;79;21062;-11
2021/11/03 05:52:05;;;;;;;0.70;0.70;;;23.60;37.20;;;;;;1816308;79;21536;-11
2021/11/03 05:54:33;;;;;;;0.78;0.78;;;23.50;37.60;;;;;;1816234;78;21502;-11
2021/11/03 05:57:02;;;;;;;1.00;0.90;;;23.50;37.60;;;;;;1816167;79;21091;-11
2021/11/03 05:59:30;;;;;;;1.00;1.00;;;23.60;37.40;;;;;;1816264;78;21099;-11
2021/11/03 06:01:58;;;;;;;1.32;1.30;;;23.50;37.30;;;;;;1816233;79;21190;-11
2021/11/03 06:04:25;;;;;;;0.95;0.80;;;23.50;37.20;;;;;;1816290;79;21126;-11
2021/11/03 06:06:53;;;;;;;1.17;0.72;;;23.50;37.80;;;;;;1816244;79;21028;-11
2021/11/03 06:09:20;;;;;;;1.22;1.12;;;23.50;37.80;;;;;;1816205;78;21537;-11
2021/11/03 06:11:50;;;;;;;1.47;1.37;;;23.50;37.50;;;;;;1816219;79;21208;-11
2021/11/03 06:14:21;;;;;;;1.20;1.10;;;23.50;37.40;;;;;;1816272;79;21138;-11
2021/11/03 06:16:48;;;;;;;1.70;1.02;;;23.50;37.40;;;;;;1816379;79;21068;-11
2021/11/03 06:19:16;;;;;;;0.95;0.85;;;23.50;37.90;;;;;;1816187;79;21536;-11
2021/11/03 06:21:43;;;;;;;1.50;1.40;;;23.50;37.70;;;;;;1816242;79;21594;-11
2021/11/03 06:24:11;;;;;;;1.20;1.10;;;23.50;37.70;;;;;;1816145;78;21189;-11
2021/11/03 06:26:38;;;;;;;1.05;1.00;;;23.50;37.60;;;;;;1787000;79;21098;-11
2021/11/03 06:29:07;;;;;;;1.82;1.20;;;23.50;37.80;;;;;;1785610;80;21083;-11
2021/11/03 06:31:35;;;;;;;1.10;1.00;;;23.50;37.70;;;;;;1785738;80;21051;-11
2021/11/03 06:34:05;;;;;;;1.15;1.05;;;23.50;38.10;;;;;;1785548;80;21158;-11
2021/11/03 06:36:32;;;;;;;1.30;1.20;;;23.50;37.90;;;;;;1785613;79;21181;-11
2021/11/03 06:39:00;;;;;;;1.35;1.25;;;23.50;37.70;;;;;;1785602;80;21603;-11
2021/11/03 06:41:30;;;;;;;1.32;1.10;;;23.50;37.70;;;;;;1785584;80;21611;-11
2021/11/03 06:43:58;;;;;;;1.20;1.10;;;23.50;37.70;;;;;;1785608;80;21107;-11
2021/11/03 06:46:25;;;;;;;1.12;1.02;;;23.50;38.20;;;;;;1785616;80;21086;-11
2021/11/03 06:48:53;;;;;;;1.50;1.40;;;23.50;38.30;;;;;;1785694;79;21528;-11
2021/11/03 06:51:21;;;;;;;1.60;1.50;;;23.50;38.50;;;;;;1785554;80;21095;-11
2021/11/03 06:53:48;;;;;;;1.80;1.70;;;23.50;37.90;;;;;;1785693;80;21090;-11
2021/11/03 06:56:16;;;;;;;1.60;1.50;;;23.50;38.00;;;;;;1785657;80;21134;-11
2021/11/03 06:58:44;;;;;;;1.35;1.25;;;23.50;38.30;;;;;;1785572;80;21548;-11
2021/11/03 07:01:12;;;;;;;1.90;1.80;;;23.50;38.30;;;;;;1785646;80;21055;-11
2021/11/03 07:03:40;;;;;;;1.90;1.80;;;23.60;38.10;;;;;;1785613;80;21086;-11
2021/11/03 07:06:08;;;;;;;1.98;1.60;;;23.50;37.90;;;;;;1785683;80;21520;-11
2021/11/03 07:08:36;;;;;;;1.75;1.65;;;23.50;38.00;;;;;;1785731;80;21083;-11
2021/11/03 07:11:04;;;;;;;1.40;1.30;;;23.50;38.30;;;;;;1785659;80;21082;-11
2021/11/03 07:13:31;;;;;;;1.40;1.30;;;23.50;38.40;;;;;;1785628;80;21054;-11
2021/11/03 07:15:59;;;;;;;1.52;1.42;;;23.50;38.00;;;;;;1785601;80;21625;-11
2021/11/03 07:18:26;;;;;;;1.55;1.45;;;23.50;37.90;;;;;;1785586;80;21083;-11
2021/11/03 07:20:54;;;;;;;1.40;1.30;;;23.60;37.90;;;;;;1785730;80;21598;-11
2021/11/03 07:23:22;;;;;;;1.55;1.45;;;23.60;38.40;;;;;;1785616;79;21547;-11
2021/11/03 07:25:49;;;;;;;2.50;2.30;;;23.60;38.20;;;;;;1785568;79;21110;-11
2021/11/03 07:28:17;;;;;;;2.40;2.20;;;23.60;38.10;;;;;;1785429;79;21086;-11
2021/11/03 07:30:44;;;;;;;2.45;2.25;;;23.50;38.00;;;;;;1785417;80;21181;-11
2021/11/03 07:33:12;;;;;;;2.40;2.20;;;23.60;38.00;;;;;;1785370;80;21584;-11
2021/11/03 07:35:40;;;;;;;1.92;1.80;;;23.60;38.30;;;;;;1785483;80;21594;-11
2021/11/03 07:38:08;;;;;;;2.80;2.52;;;23.60;38.50;;;;;;1785390;80;21899;-11
2021/11/03 07:40:42;;;;;;;2.80;2.60;;;23.60;37.90;;;;;;1785425;80;21618;-11
2021/11/03 07:43:13;;;;;;;2.52;2.12;;;23.60;38.10;;;;;;1785380;80;21556;-11
2021/11/03 07:45:41;;;;;;;1.75;1.65;;;23.60;38.20;;;;;;1785366;80;21511;-11
2021/11/03 07:48:09;;;;;;;1.72;1.62;;;23.60;38.60;;;;;;1785459;80;21615;-11
2021/11/03 07:50:39;;;;;;;2.00;1.90;;;23.60;38.70;;;;;;1785411;79;21090;-11
2021/11/03 07:53:07;;;;;;;2.45;2.25;;;23.60;38.30;;;;;;1785514;80;21508;-11
2021/11/03 07:55:34;;;;;;;1.75;1.57;;;23.60;38.10;;;;;;1785460;80;21105;-11
2021/11/03 07:58:02;;;;;;;1.30;1.20;;;23.60;38.10;;;;;;1785386;80;21086;-11
2021/11/03 08:00:35;;;;;;;1.50;1.40;;;23.60;38.70;;;;;;1785378;80;21087;-11
2021/11/03 08:03:02;;;;;;;1.57;1.47;;;23.60;38.70;;;;;;1785375;80;21058;-11
2021/11/03 08:05:30;;;;;;;2.10;2.00;;;23.60;38.40;;;;;;1785490;80;21500;-11
2021/11/03 08:07:59;;;;;;;2.12;1.92;;;23.60;38.20;;;;;;1785491;80;21168;-11
2021/11/03 08:10:27;;;;;;;1.75;1.45;;;23.60;38.20;;;;;;1785387;80;21090;-11
2021/11/03 08:12:56;;;;;;;2.27;2.08;;;23.60;38.60;;;;;;1785304;80;21048;-11
2021/11/03 08:15:25;;;;;;;2.00;1.90;;;23.60;38.80;;;;;;1785477;80;21058;-11
2021/11/03 08:17:53;;;;;;;2.72;2.52;;;23.60;38.50;;;;;;1785382;80;21516;-11
2021/11/03 08:20:25;;;;;;;2.70;2.50;;;23.60;38.40;;;;;;1785393;80;21593;-11
2021/11/03 08:22:54;;;;;;;2.58;2.37;;;23.60;38.40;;;;;;1785360;80;21091;-11
2021/11/03 08:25:22;;;;;;;3.10;2.35;;;23.60;38.90;;;;;;1785339;79;21620;-11
2021/11/03 08:27:49;;;;;;;2.58;2.37;;;23.50;38.80;;;;;;1787599;80;21067;-11
2021/11/03 08:30:17;;;;;;;2.47;2.27;;;23.60;38.60;;;;;;1787622;80;21099;-10
2021/11/03 08:33:05;;;;;;;2.55;1.92;;;23.60;38.40;;;;;;1787666;80;21508;-10
2021/11/03 08:35:33;;;;;;;2.10;1.90;;;23.60;38.50;;;;;;1787592;80;21035;-10
2021/11/03 08:38:03;;;;;;;1.90;1.80;;;23.60;38.90;;;;;;1787582;80;21051;-10
2021/11/03 08:40:31;;;;;;;2.00;1.90;;;23.60;38.90;;;;;;1787549;80;21176;-10
2021/11/03 08:43:00;;;;;;;2.40;2.20;;;23.60;38.60;;;;;;1787602;80;21027;-10
2021/11/03 08:45:28;;;;;;;1.47;1.35;;;23.70;38.60;;;;;;1780545;80;21138;-11
2021/11/03 08:47:56;;;;;;;1.42;1.32;;;23.70;38.90;;;;;;1787611;80;21465;-10
2021/11/03 08:50:26;;;;;;;1.70;1.45;;;23.70;38.90;;;;;;1787550;80;21631;-10
2021/11/03 08:52:54;;;;;;;1.47;1.37;;;23.70;38.80;;;;;;1787583;80;21067;-10
2021/11/03 08:55:22;;;;;;;1.60;1.50;;;23.70;38.60;;;;;;1787486;80;21516;-10
2021/11/03 08:57:49;;;;;;;1.40;1.30;;;23.70;38.60;;;;;;1787621;80;21460;-10
2021/11/03 09:00:25;;;;;;;1.92;1.70;;;23.70;38.80;;;;;;1787556;80;21523;-10
2021/11/03 09:02:56;;;;;;;2.60;1.80;;;23.70;38.90;;;;;;1787048;80;21095;-11
2021/11/03 09:05:24;;;;;;;1.85;1.75;;;23.70;38.70;;;;;;1787577;80;21058;-10
2021/11/03 09:07:52;;;;;;;1.52;1.42;;;23.70;38.50;;;;;;1787641;80;21618;-10
2021/11/03 09:10:22;;;;;;;1.40;1.30;;;23.70;38.40;;;;;;1787559;80;21614;-11
2021/11/03 09:12:50;;;;;;;1.37;1.22;;;23.70;39.00;;;;;;1787576;80;21071;-10
2021/11/03 09:15:18;;;;;;;1.50;1.40;;;23.70;39.10;;;;;;1787532;80;21622;-11
2021/11/03 09:17:47;;;;;;;1.90;1.80;;;23.70;38.70;;;;;;1787504;80;21031;-10
2021/11/03 09:20:16;;;;;;;1.77;1.67;;;23.70;38.60;;;;;;1787481;79;21079;-12
2021/11/03 09:22:44;;;;;;;1.30;1.20;;;23.70;38.60;;;;;;1787561;80;21520;-10
2021/11/03 09:25:14;;;;;;;1.32;1.22;;;23.70;38.90;;;;;;1787509;79;21172;-11
2021/11/03 09:27:41;;;;;;;2.20;1.65;;;23.70;39.00;;;;;;1785749;79;21075;-11
2021/11/03 09:30:10;;;;;;;1.70;1.60;;;23.70;38.80;;;;;;1785336;80;21728;-11
2021/11/03 09:32:42;;;;;;;2.20;2.00;;;23.70;38.60;;;;;;1785449;80;21106;-11
2021/11/03 09:35:10;;;;;;;1.75;1.65;;;23.70;38.60;;;;;;1785402;80;21047;-10
2021/11/03 09:37:38;;;;;;;1.75;1.52;;;23.70;39.00;;;;;;1785373;80;21103;-11
2021/11/03 09:40:07;;;;;;;2.62;2.42;;;23.70;39.00;;;;;;1785352;80;21520;-11
2021/11/03 09:42:35;;;;;;;2.35;2.15;;;23.70;38.60;;;;;;1785366;80;21073;-11
2021/11/03 09:45:02;;;;;;;3.08;2.80;;;23.70;38.70;;;;;;1785464;80;21563;-11
2021/11/03 09:47:33;;;;;;;2.10;1.90;;;23.70;38.60;;;;;;1785405;80;21588;-11
2021/11/03 09:50:16;;;;;;;2.55;2.35;;;23.70;39.00;;;;;;1785363;80;21599;-10
2021/11/03 09:52:47;;;;;;;3.37;3.08;;;23.70;38.90;;;;;;1784537;80;21473;-10
2021/11/03 09:55:20;;;;;;;3.20;2.90;;;23.70;38.90;;;;;;1784775;80;21095;-10
2021/11/03 09:58:12;;;;;;;3.30;3.00;;;23.70;38.90;;;;;;1785463;80;21534;-10
2021/11/03 10:00:53;;;;;;;2.90;2.70;;;23.70;38.90;;;;;;1786107;79;21068;-10
2021/11/03 10:03:51;;;;;;;3.00;2.75;;;23.70;39.30;;;;;;1785261;79;21063;-10
2021/11/03 10:06:28;;;;;;;3.30;3.00;;;23.60;39.30;;;;;;1785340;80;21438;-10
2021/11/03 10:08:55;;;;;;;3.22;2.92;;;23.60;39.20;;;;;;1784908;79;21138;-10
2021/11/03 10:11:28;;;;;;;2.40;2.20;;;23.60;39.20;;;;;;1785381;79;21129;-10
2021/11/03 10:13:57;;;;;;;3.55;3.08;;;23.60;39.60;;;;;;1785289;80;21165;-10
2021/11/03 10:16:28;;;;;;;3.55;3.25;;;23.60;39.60;;;;;;1785463;80;21082;-10
2021/11/03 10:19:16;;;;;;;3.60;3.30;;;23.70;39.30;;;;;;1785055;80;21603;-10
2021/11/03 10:21:53;;;;;;;3.70;3.40;;;23.70;39.20;;;;;;1785434;80;21166;-10
2021/11/03 10:24:24;;;;;;;3.33;3.12;;;23.70;39.10;;;;;;1784800;79;21129;-10
2021/11/03 10:26:57;;;;;;;3.10;2.80;;;23.70;39.50;;;;;;1793684;78;21112;-10
2021/11/03 10:29:48;;;;;;;3.10;2.83;;;23.70;39.60;;;;;;1816227;79;21126;-10
2021/11/03 10:32:27;;;;;;;3.02;2.75;;;23.70;39.30;;;;;;1816123;78;21141;-10
2021/11/03 10:35:19;;;;;;;3.50;3.20;;;23.70;39.10;;;;;;1816122;78;21024;-11
2021/11/03 10:37:48;;;;;;;2.70;2.50;;;23.70;39.10;;;;;;1816013;79;21729;-11
2021/11/03 10:40:26;;;;;;;3.70;3.40;;;23.60;39.60;;;;;;1816221;79;21049;-11
2021/11/03 10:43:02;;;;;;;3.45;3.15;;;23.70;39.30;;;;;;1816279;79;21158;-11
2021/11/03 10:45:38;;;;;;;3.12;2.87;;;23.70;39.20;;;;;;1816204;79;21107;-11
2021/11/03 10:48:24;;;;;;;2.60;2.40;;;23.70;39.20;;;;;;1816312;79;21040;-11
2021/11/03 10:51:00;;;;;;;2.58;2.37;;;23.70;39.50;;;;;;1814991;79;21133;-11
2021/11/03 10:53:30;;;;;;;2.87;2.65;;;23.70;39.40;;;;;;1816241;79;21586;-11
2021/11/03 10:56:29;;;;;;;2.80;2.60;;;23.70;39.40;;;;;;1816185;79;21516;-11
2021/11/03 10:59:06;;;;;;;2.77;2.58;;;23.70;39.10;;;;;;1816333;78;21107;-11
2021/11/03 11:01:38;;;;;;;2.47;2.27;;;23.70;39.10;;;;;;1812330;79;21071;-11
2021/11/03 11:04:30;;;;;;;1.98;1.87;;;23.70;39.50;;;;;;1816276;78;21173;-11
2021/11/03 11:07:20;;;;;;;3.17;2.92;;;23.70;39.50;;;;;;1816376;79;21052;-10
2021/11/03 11:10:24;;;;;;;2.50;2.30;;;23.70;39.20;;;;;;1813518;79;21067;-10
2021/11/03 11:12:52;;;;;;;2.10;1.95;;;23.70;39.10;;;;;;1816330;79;21167;-10
2021/11/03 11:15:23;;;;;;;2.30;2.10;;;23.70;39.50;;;;;;1816248;79;21146;-10
2021/11/03 11:17:54;;;;;;;2.87;2.67;;;23.70;39.60;;;;;;1816419;79;21121;-10
2021/11/03 11:20:34;;;;;;;3.12;2.83;;;23.70;39.20;;;;;;1816223;79;21577;-10
2021/11/03 11:23:17;;;;;;;3.00;2.80;;;23.70;38.90;;;;;;1816305;79;21056;-10
2021/11/03 11:26:15;;;;;;;3.35;2.90;;;23.70;39.00;;;;;;1816309;79;21500;-10
2021/11/03 11:29:08;;;;;;;2.40;2.20;;;23.80;39.30;;;;;;1789624;78;21135;-10
2021/11/03 11:31:49;;;;;;;3.20;3.00;;;23.70;39.50;;;;;;1785703;80;21551;-10
2021/11/03 11:34:41;;;;;;;4.17;3.02;;;23.70;39.20;;;;;;1785864;80;21059;-9
2021/11/03 11:37:15;;;;;;;2.33;2.12;;;23.70;39.20;;;;;;1785739;80;21125;-9
2021/11/03 11:39:57;;;;;;;3.12;2.90;;;23.70;39.60;;;;;;1785552;80;21066;-9
2021/11/03 11:42:39;;;;;;;3.40;3.20;;;23.70;39.50;;;;;;1785641;80;21102;-9
2021/11/03 11:45:20;;;;;;;4.30;3.30;;;23.70;39.50;;;;;;1785243;80;21024;-9
2021/11/03 11:47:50;;;;;;;3.70;3.40;;;23.70;39.30;;;;;;1785608;80;21065;-9
2021/11/03 11:50:23;;;;;;;2.72;2.52;;;23.70;39.10;;;;;;1785581;79;21141;-9
2021/11/03 11:52:52;;;;;;;2.72;2.52;;;23.80;39.40;;;;;;1785642;80;21047;-9
2021/11/03 11:55:23;;;;;;;3.02;2.83;;;23.80;39.60;;;;;;1785646;80;21086;-9
2021/11/03 11:58:09;;;;;;;2.87;2.67;;;23.80;39.10;;;;;;1785576;80;21495;-9
2021/11/03 12:00:38;;;;;;;3.50;3.20;;;23.80;38.60;;;;;;1785694;80;21067;-9
2021/11/03 12:03:12;;;;;;;2.50;2.30;;;23.80;39.00;;;;;;1785652;80;21051;-10
2021/11/03 12:05:43;;;;;;;3.00;2.70;;;23.80;39.40;;;;;;1785636;80;21103;-10
2021/11/03 12:08:16;;;;;;;3.40;3.10;;;23.80;39.30;;;;;;1785750;79;21547;-11
2021/11/03 12:10:57;;;;;;;3.60;3.30;;;23.90;39.10;;;;;;1785501;79;21160;-10
2021/11/03 12:13:43;;;;;;;;;;;23.90;39.00;;;;;;1788218;80;21177;-10
2021/11/03 12:16:13;;;;;;;2.67;2.47;;;23.80;39.30;;;;;;1785659;79;20126;-10
2021/11/03 12:18:44;;;;;;;2.90;2.70;;;23.70;39.60;;;;;;1785219;79;21055;-10
2021/11/03 12:21:27;;;;;;;3.80;3.42;;;23.80;39.40;;;;;;1785610;80;21488;-10
2021/11/03 12:24:09;;;;;;;3.58;3.27;;;23.80;39.10;;;;;;1784567;79;21169;-10
2021/11/03 12:26:45;;;;;;;2.47;2.27;;;23.80;39.00;;;;;;1784320;80;21578;-10
2021/11/03 12:29:18;;;;;;;2.40;2.20;;;23.80;39.40;;;;;;1785475;79;21068;-10
2021/11/03 12:31:53;;;;;;;3.08;2.77;;;23.90;39.50;;;;;;1785537;80;21060;-10
2021/11/03 12:34:38;;;;;;;3.40;3.10;;;23.90;39.30;;;;;;1785544;80;21547;-10
2021/11/03 12:37:09;;;;;;;2.95;2.75;;;23.90;39.10;;;;;;1785694;80;21496;-10
2021/11/03 12:39:45;;;;;;;2.83;2.60;;;23.90;39.20;;;;;;1785849;80;21102;-10
2021/11/03 12:42:34;;;;;;;2.80;2.60;;;23.90;39.50;;;;;;1785594;79;21528;-10
2021/11/03 12:45:17;;;;;;;3.25;2.95;;;23.90;39.60;;;;;;1785572;80;21504;-10
2021/11/03 12:47:59;;;;;;;3.42;3.12;;;23.90;39.30;;;;;;1785352;80;21160;-10
2021/11/03 12:50:38;;;;;;;3.10;2.85;;;23.80;39.30;;;;;;1785623;80;21110;-11
2021/11/03 12:53:24;;;;;;;2.83;2.50;;;23.80;39.30;;;;;;1785677;80;21050;-11
2021/11/03 12:55:59;;;;;;;2.75;2.55;;;23.80;39.60;;;;;;1785652;80;21082;-11
2021/11/03 12:58:33;;;;;;;3.20;2.90;;;23.80;39.50;;;;;;1785697;80;21076;-10
2021/11/03 13:01:25;;;;;;;3.65;3.35;;;23.90;39.30;;;;;;1785568;80;21533;-10
2021/11/03 13:03:58;;;;;;;2.98;2.62;;;23.90;39.10;;;;;;1785586;80;21102;-10
2021/11/03 13:06:33;;;;;;;2.05;1.92;;;23.80;39.50;;;;;;1785567;80;21117;-12
2021/11/03 13:09:02;;;;;;;2.98;2.67;;;23.80;39.50;;;;;;1785627;80;21103;-10